Time;durP1;ratioP1;P1;durP2;ratioP2;P2;SDS_P1;SDS_P2;PMS_P1;PMS_P2;Temp;Humidity;BMP_temperature;BMP_pressure;BME280_temperature;BME280_humidity;BME280_pressure;Samples;Min_cycle;Max_cycle;Signal;HPM_P1;HPM_P2
2021/10/02 00:34:17;;;;;;;11.95;6.05;;;14.30;96.00;;;;;;5012501;28;20034;-81
2021/10/02 00:44:49;;;;;;;11.38;6.05;;;14.30;96.00;;;;;;5013442;28;20113;-81
2021/10/02 00:47:18;;;;;;;10.68;6.68;;;14.30;96.10;;;;;;5013516;28;20537;-80
2021/10/02 00:49:45;;;;;;;10.90;6.78;;;14.30;96.00;;;;;;5015079;28;20068;-81
2021/10/02 00:52:16;;;;;;;12.27;7.53;;;14.40;96.10;;;;;;5013548;28;20025;-81
2021/10/02 00:54:42;;;;;;;10.95;7.47;;;14.30;96.00;;;;;;5014484;28;20093;-81
2021/10/02 00:57:09;;;;;;;9.55;6.55;;;14.30;96.10;;;;;;5029465;28;20030;-81
2021/10/02 00:59:36;;;;;;;13.13;7.72;;;14.30;96.10;;;;;;4997442;28;20068;-83
2021/10/02 01:02:25;;;;;;;11.48;7.80;;;14.40;96.10;;;;;;5013835;28;20465;-81
2021/10/02 01:04:56;;;;;;;14.80;9.15;;;14.30;96.20;;;;;;5016957;28;20068;-80
2021/10/02 01:07:40;;;;;;;11.82;7.78;;;14.30;96.20;;;;;;5022503;28;20027;-76
2021/10/02 01:10:20;;;;;;;12.68;8.68;;;14.40;96.30;;;;;;5004533;28;20061;-81
2021/10/02 01:13:16;;;;;;;13.23;8.45;;;14.40;96.30;;;;;;5018841;28;20034;-78
2021/10/02 01:15:51;;;;;;;11.95;8.27;;;14.30;96.20;;;;;;5020357;28;20385;-82
2021/10/02 01:19:13;;;;;;;13.57;8.25;;;14.30;96.20;;;;;;5004596;28;20034;-77
2021/10/02 01:21:48;;;;;;;13.02;8.80;;;14.30;96.20;;;;;;5017284;28;20059;-83
2021/10/02 01:24:32;;;;;;;13.43;8.50;;;14.40;96.30;;;;;;5034156;28;20184;-81
2021/10/02 01:27:33;;;;;;;14.13;8.55;;;14.40;96.20;;;;;;5005506;28;20109;-82
2021/10/02 01:30:04;;;;;;;13.45;9.30;;;14.40;96.20;;;;;;5010927;28;20054;-80
2021/10/02 01:32:35;;;;;;;17.65;9.27;;;14.40;96.20;;;;;;4993259;28;20072;-81
2021/10/02 01:35:28;;;;;;;14.18;8.68;;;14.40;96.20;;;;;;5009451;28;20125;-81
2021/10/02 01:48:57;;;;;;;15.35;9.48;;;14.40;96.10;;;;;;5007353;28;20040;-81
2021/10/02 01:51:23;;;;;;;13.02;9.50;;;14.40;96.20;;;;;;4994044;28;20046;-81
2021/10/02 01:53:50;;;;;;;11.65;8.63;;;14.40;96.10;;;;;;4992896;28;20027;-81
2021/10/02 01:56:19;;;;;;;11.98;8.45;;;14.40;96.10;;;;;;4995057;28;20029;-82
2021/10/02 01:58:47;;;;;;;13.40;9.70;;;14.40;96.10;;;;;;4997060;28;20078;-82
2021/10/02 02:01:13;;;;;;;14.90;9.23;;;14.50;96.10;;;;;;5013065;28;20029;-81
2021/10/02 02:03:44;;;;;;;10.25;7.43;;;14.40;96.10;;;;;;4997878;28;20030;-81
2021/10/02 02:06:11;;;;;;;13.52;8.35;;;14.40;96.10;;;;;;5012916;28;20030;-81
2021/10/02 02:08:39;;;;;;;13.75;8.05;;;14.40;96.10;;;;;;4996645;28;20022;-80
2021/10/02 02:11:06;;;;;;;17.40;9.07;;;14.40;96.00;;;;;;5012926;28;20366;-83
2021/10/02 02:13:36;;;;;;;14.63;9.05;;;14.40;96.00;;;;;;4996541;28;20065;-80
2021/10/02 02:16:02;;;;;;;17.17;9.85;;;14.30;96.00;;;;;;5012714;28;20027;-81
2021/10/02 02:18:29;;;;;;;14.05;9.80;;;14.40;96.10;;;;;;4996450;28;20022;-82
2021/10/02 02:20:59;;;;;;;13.73;9.02;;;14.40;96.10;;;;;;4997601;28;20034;-82
2021/10/02 02:23:25;;;;;;;13.75;8.82;;;14.40;96.10;;;;;;4997357;28;20054;-81
2021/10/02 02:25:53;;;;;;;14.70;9.57;;;14.40;96.10;;;;;;4996127;28;20038;-81
2021/10/02 02:28:21;;;;;;;14.10;9.85;;;14.40;96.10;;;;;;5012506;28;20034;-81
2021/10/02 02:30:48;;;;;;;14.73;9.80;;;14.40;96.10;;;;;;4996641;28;20022;-83
2021/10/02 02:33:17;;;;;;;13.85;9.40;;;14.40;96.10;;;;;;5012589;28;20026;-82
2021/10/02 02:35:44;;;;;;;14.65;9.65;;;14.40;96.10;;;;;;5012507;28;20137;-81
2021/10/02 02:38:10;;;;;;;17.08;9.38;;;14.40;96.10;;;;;;5017590;28;20029;-80
2021/10/02 02:40:36;;;;;;;16.70;9.20;;;14.40;96.10;;;;;;4999407;28;20030;-81
2021/10/02 02:43:02;;;;;;;16.00;9.98;;;14.40;96.10;;;;;;5015586;28;20076;-81
2021/10/02 02:45:28;;;;;;;17.45;10.43;;;14.40;96.10;;;;;;5011295;28;20525;-81
2021/10/02 02:48:01;;;;;;;15.00;9.70;;;14.30;96.10;;;;;;5012083;28;20019;-80
2021/10/02 02:50:34;;;;;;;16.27;8.88;;;14.30;96.10;;;;;;4995773;28;20019;-81
2021/10/02 02:53:26;;;;;;;15.00;10.65;;;14.30;96.20;;;;;;4995798;28;20018;-79
2021/10/02 02:56:09;;;;;;;19.15;10.93;;;14.30;96.20;;;;;;5012281;28;20034;-82
2021/10/02 02:58:39;;;;;;;15.15;9.48;;;14.40;96.20;;;;;;4996794;28;20493;-81
2021/10/02 03:01:05;;;;;;;15.07;11.00;;;14.30;96.10;;;;;;4995707;28;20493;-81
2021/10/02 03:03:34;;;;;;;16.23;10.40;;;14.40;96.50;;;;;;4979580;28;20065;-81
2021/10/02 03:06:06;;;;;;;15.48;10.10;;;14.30;96.20;;;;;;4996699;28;20033;-80
2021/10/02 03:08:35;;;;;;;16.92;9.80;;;14.40;96.20;;;;;;5010837;28;20030;-78
2021/10/02 03:11:02;;;;;;;19.25;10.40;;;14.30;96.20;;;;;;4996807;28;20062;-81
2021/10/02 03:13:30;;;;;;;17.85;11.55;;;14.40;96.20;;;;;;4996580;28;20034;-79
2021/10/02 03:15:56;;;;;;;15.43;10.98;;;14.30;96.20;;;;;;5011553;28;20386;-83
2021/10/02 03:18:25;;;;;;;19.27;11.55;;;14.30;96.20;;;;;;5012457;28;20088;-81
2021/10/02 03:20:53;;;;;;;17.08;12.05;;;14.30;96.20;;;;;;5010452;28;20034;-81
2021/10/02 03:23:20;;;;;;;16.58;11.07;;;14.30;96.20;;;;;;5013078;28;20085;-80
2021/10/02 03:25:46;;;;;;;20.35;12.38;;;14.30;96.20;;;;;;5013278;28;20033;-82
2021/10/02 03:28:13;;;;;;;19.98;11.95;;;14.30;96.20;;;;;;5024042;28;20026;-81
2021/10/02 03:30:39;;;;;;;20.83;11.80;;;14.30;96.20;;;;;;5011309;28;20040;-81
2021/10/02 03:33:05;;;;;;;15.45;10.40;;;14.30;96.20;;;;;;5009769;28;20030;-81
2021/10/02 03:35:31;;;;;;;18.92;11.90;;;14.40;96.30;;;;;;5003668;28;20553;-81
2021/10/02 03:37:57;;;;;;;18.35;11.70;;;14.30;96.20;;;;;;5010192;28;20038;-81
2021/10/02 03:40:24;;;;;;;17.02;11.02;;;14.40;96.30;;;;;;5029237;28;20168;-81
2021/10/02 03:42:53;;;;;;;18.17;11.35;;;14.40;96.30;;;;;;5014384;28;20485;-81
2021/10/02 03:45:21;;;;;;;14.05;10.23;;;14.30;96.50;;;;;;5015501;28;20034;-81
2021/10/02 03:47:47;;;;;;;16.27;11.43;;;14.30;96.20;;;;;;5013420;28;20040;-80
2021/10/02 03:50:13;;;;;;;19.42;11.38;;;14.30;96.30;;;;;;5009447;28;20074;-79
2021/10/02 03:52:39;;;;;;;15.55;10.93;;;14.30;96.30;;;;;;5015394;28;20030;-77
2021/10/02 03:55:06;;;;;;;20.08;12.60;;;14.30;96.30;;;;;;5014335;28;20026;-80
2021/10/02 03:57:32;;;;;;;20.15;11.90;;;14.20;96.30;;;;;;5028514;28;20067;-82
2021/10/02 03:59:57;;;;;;;15.50;10.70;;;14.20;96.30;;;;;;5010106;28;20492;-81
2021/10/02 04:02:23;;;;;;;16.58;11.52;;;14.20;96.30;;;;;;4994754;28;20037;-80
2021/10/02 04:04:50;;;;;;;19.33;13.40;;;14.20;96.30;;;;;;5010956;28;20026;-81
2021/10/02 04:07:16;;;;;;;17.33;12.07;;;14.20;96.40;;;;;;5011081;28;20061;-78
2021/10/02 04:09:41;;;;;;;18.85;11.60;;;14.10;96.40;;;;;;4996254;28;20058;-82
2021/10/02 04:12:07;;;;;;;16.73;11.25;;;14.10;96.40;;;;;;5019244;28;20029;-80
2021/10/02 04:14:33;;;;;;;17.25;11.63;;;14.10;96.50;;;;;;5022677;28;20029;-80
2021/10/02 04:16:59;;;;;;;19.27;11.57;;;14.20;96.40;;;;;;5026831;28;20030;-81
2021/10/02 04:19:26;;;;;;;16.23;11.20;;;14.10;96.40;;;;;;4989150;28;20457;-80
2021/10/02 04:21:52;;;;;;;16.05;12.18;;;14.10;96.50;;;;;;4999818;28;20118;-80
2021/10/02 04:24:18;;;;;;;18.80;12.40;;;14.10;96.40;;;;;;5013613;28;20080;-81
2021/10/02 04:26:44;;;;;;;18.55;13.15;;;14.10;96.50;;;;;;5013629;28;20050;-81
2021/10/02 04:29:10;;;;;;;19.35;12.52;;;14.10;96.50;;;;;;5013430;28;20446;-79
2021/10/02 04:31:36;;;;;;;20.48;14.05;;;14.10;96.40;;;;;;5028351;28;20505;-81
2021/10/02 04:34:02;;;;;;;24.15;13.75;;;14.10;96.40;;;;;;5012826;28;20026;-81
2021/10/02 04:36:28;;;;;;;22.80;13.90;;;14.10;96.40;;;;;;5013582;28;20456;-80
2021/10/02 04:38:54;;;;;;;27.70;15.75;;;14.10;96.40;;;;;;4999564;28;20183;-80
2021/10/02 04:41:21;;;;;;;19.98;13.77;;;14.10;96.50;;;;;;5009947;28;20026;-81
2021/10/02 04:43:47;;;;;;;17.40;12.52;;;14.00;96.50;;;;;;4994850;28;20054;-80
2021/10/02 04:46:15;;;;;;;19.40;13.15;;;14.00;96.50;;;;;;4993817;28;20034;-80
2021/10/02 04:48:41;;;;;;;21.77;13.77;;;14.20;96.50;;;;;;4993644;28;20378;-80
2021/10/02 04:51:08;;;;;;;21.33;14.73;;;14.00;96.50;;;;;;5010277;28;20478;-82
2021/10/02 04:53:34;;;;;;;22.02;14.38;;;14.00;96.50;;;;;;4994837;28;20026;-82
2021/10/02 04:56:00;;;;;;;18.35;13.65;;;14.00;96.50;;;;;;5009835;28;20109;-80
2021/10/02 04:58:29;;;;;;;21.98;14.23;;;14.00;96.50;;;;;;4993561;28;20026;-81
2021/10/02 05:00:55;;;;;;;20.40;14.07;;;13.90;96.80;;;;;;5011417;28;20057;-79
2021/10/02 05:03:21;;;;;;;20.00;13.20;;;13.90;96.50;;;;;;5029281;28;20026;-79
2021/10/02 05:05:47;;;;;;;19.85;14.23;;;13.90;96.50;;;;;;5029265;28;20100;-80
2021/10/02 05:08:12;;;;;;;21.88;15.63;;;14.00;96.50;;;;;;5009956;28;20030;-78
2021/10/02 05:10:39;;;;;;;22.65;14.23;;;14.00;96.60;;;;;;5012735;28;20029;-79
2021/10/02 05:13:06;;;;;;;18.70;13.23;;;14.00;96.50;;;;;;5014020;28;20041;-81
2021/10/02 05:15:32;;;;;;;20.27;14.27;;;14.00;96.50;;;;;;5029170;28;20018;-76
2021/10/02 05:17:57;;;;;;;18.35;12.82;;;13.90;96.50;;;;;;5029372;28;20022;-76
2021/10/02 05:20:23;;;;;;;19.75;13.18;;;14.00;96.50;;;;;;5013113;28;20394;-77
2021/10/02 05:22:49;;;;;;;20.35;15.35;;;13.90;96.40;;;;;;5012637;28;20053;-77
2021/10/02 05:25:14;;;;;;;21.13;14.15;;;13.90;96.40;;;;;;5012362;28;20029;-77
2021/10/02 05:27:40;;;;;;;23.88;15.40;;;13.90;96.40;;;;;;5013125;28;20030;-76
2021/10/02 05:30:06;;;;;;;21.77;15.02;;;13.90;96.40;;;;;;5028330;28;20478;-77
2021/10/02 05:32:32;;;;;;;25.35;14.27;;;13.80;96.40;;;;;;4996202;28;20026;-77
2021/10/02 05:34:58;;;;;;;18.60;13.25;;;13.80;96.40;;;;;;5014267;28;20022;-76
2021/10/02 05:37:24;;;;;;;21.58;15.00;;;13.80;96.40;;;;;;5013290;28;20153;-76
2021/10/02 05:39:51;;;;;;;21.65;14.10;;;13.70;96.40;;;;;;4996581;28;20026;-77
2021/10/02 05:42:16;;;;;;;25.33;14.50;;;13.70;96.40;;;;;;5029130;28;20026;-77
2021/10/02 05:44:42;;;;;;;19.65;14.10;;;13.70;96.40;;;;;;5028942;28;20018;-78
2021/10/02 05:47:08;;;;;;;20.77;14.30;;;13.60;96.40;;;;;;5012355;28;20030;-77
2021/10/02 05:49:34;;;;;;;23.10;14.30;;;13.60;96.40;;;;;;5012816;28;20026;-77
2021/10/02 05:52:00;;;;;;;20.15;13.05;;;13.60;96.30;;;;;;5012373;28;20116;-79
2021/10/02 05:54:26;;;;;;;19.63;13.20;;;13.50;96.30;;;;;;5028681;28;20018;-77
2021/10/02 05:56:52;;;;;;;18.02;13.40;;;13.50;96.40;;;;;;5012366;28;20092;-77
2021/10/02 05:59:17;;;;;;;21.52;11.95;;;13.50;96.30;;;;;;5028567;28;20037;-78
2021/10/02 06:01:43;;;;;;;18.23;12.95;;;13.40;96.40;;;;;;5013494;28;20033;-77
2021/10/02 06:04:09;;;;;;;17.48;12.27;;;13.40;96.50;;;;;;4995827;28;20061;-76
2021/10/02 06:06:34;;;;;;;17.83;11.68;;;13.40;96.50;;;;;;4998449;28;20128;-76
2021/10/02 06:09:00;;;;;;;18.38;12.45;;;13.30;96.40;;;;;;4999641;28;20023;-76
2021/10/02 06:11:26;;;;;;;18.58;12.38;;;13.40;96.40;;;;;;5015008;28;20033;-77
2021/10/02 06:13:51;;;;;;;19.75;12.70;;;13.30;96.40;;;;;;5020650;28;20018;-76
2021/10/02 06:16:19;;;;;;;20.75;13.52;;;13.30;96.50;;;;;;5001345;28;20023;-76
2021/10/02 06:18:45;;;;;;;22.75;13.43;;;13.30;96.50;;;;;;5025676;28;20140;-76
2021/10/02 06:21:14;;;;;;;20.35;12.77;;;13.30;96.50;;;;;;5028701;28;20441;-76
2021/10/02 06:23:41;;;;;;;18.42;12.10;;;13.30;96.50;;;;;;5027396;28;20050;-76
2021/10/02 06:26:07;;;;;;;21.30;12.38;;;13.20;96.50;;;;;;5012118;28;20037;-76
2021/10/02 06:28:33;;;;;;;18.45;13.00;;;13.30;96.50;;;;;;5029009;28;20362;-76
2021/10/02 06:30:58;;;;;;;19.58;11.95;;;13.30;96.50;;;;;;5011997;28;20022;-77
2021/10/02 06:33:24;;;;;;;21.08;12.68;;;13.40;96.50;;;;;;5007751;28;20026;-76
2021/10/02 06:35:50;;;;;;;23.23;13.32;;;13.30;96.50;;;;;;5003541;28;20507;-76
2021/10/02 06:38:15;;;;;;;21.25;13.30;;;13.30;96.50;;;;;;4992325;28;20045;-77
2021/10/02 06:40:43;;;;;;;24.67;14.23;;;13.30;96.60;;;;;;4992321;28;20426;-76
2021/10/02 06:43:10;;;;;;;20.77;13.55;;;13.30;96.60;;;;;;5012381;28;20077;-76
2021/10/02 06:45:35;;;;;;;18.67;13.48;;;13.30;96.60;;;;;;4995919;28;20034;-76
2021/10/02 06:48:02;;;;;;;19.67;12.73;;;13.30;96.60;;;;;;4997200;28;20023;-77
2021/10/02 06:50:28;;;;;;;20.33;12.80;;;13.40;96.70;;;;;;4995867;28;20467;-77
2021/10/02 06:52:55;;;;;;;19.85;14.43;;;13.30;97.00;;;;;;5012519;28;20033;-77
2021/10/02 06:55:21;;;;;;;18.33;12.73;;;13.40;96.70;;;;;;5011855;28;20038;-79
2021/10/02 06:57:47;;;;;;;25.42;13.55;;;13.40;96.70;;;;;;4995802;28;20030;-78
2021/10/02 07:00:13;;;;;;;22.67;14.30;;;13.40;96.70;;;;;;5012869;28;20373;-79
2021/10/02 07:02:42;;;;;;;26.35;16.33;;;13.40;96.70;;;;;;4998907;28;20057;-78
2021/10/02 07:05:13;;;;;;;23.55;14.85;;;13.50;96.70;;;;;;5015575;28;20034;-76
2021/10/02 07:07:40;;;;;;;23.85;15.32;;;13.50;96.70;;;;;;5015081;28;20184;-78
2021/10/02 07:10:07;;;;;;;22.67;14.27;;;13.60;96.70;;;;;;5014561;28;20030;-81
2021/10/02 07:12:33;;;;;;;24.90;14.55;;;13.60;96.60;;;;;;5031315;28;20030;-79
2021/10/02 07:14:59;;;;;;;20.83;15.38;;;13.70;96.50;;;;;;5014797;28;20053;-77
2021/10/02 07:17:24;;;;;;;20.17;13.93;;;13.70;96.40;;;;;;5015249;28;20100;-76
2021/10/02 07:19:50;;;;;;;21.23;13.75;;;13.80;96.40;;;;;;4998662;28;20036;-76
2021/10/02 07:22:16;;;;;;;19.90;12.68;;;13.80;96.20;;;;;;5016076;28;20197;-76
2021/10/02 07:24:42;;;;;;;20.48;13.75;;;13.90;96.30;;;;;;5015843;28;20510;-74
2021/10/02 07:27:08;;;;;;;19.40;12.75;;;13.90;96.20;;;;;;4997901;28;20037;-76
2021/10/02 07:29:34;;;;;;;21.20;13.77;;;14.00;96.40;;;;;;5014535;28;20421;-75
2021/10/02 07:32:00;;;;;;;15.93;11.07;;;14.00;95.90;;;;;;5013818;28;20030;-74
2021/10/02 07:34:26;;;;;;;18.42;12.75;;;14.10;95.90;;;;;;5015527;28;20110;-75
2021/10/02 07:36:52;;;;;;;18.00;11.85;;;14.10;95.80;;;;;;5015615;28;20065;-76
2021/10/02 07:39:17;;;;;;;18.00;11.75;;;14.20;95.90;;;;;;5014529;28;20072;-75
2021/10/02 07:41:46;;;;;;;18.38;12.48;;;14.20;95.80;;;;;;5015489;28;20021;-75
2021/10/02 07:44:13;;;;;;;20.67;12.45;;;14.20;95.70;;;;;;4998274;28;20079;-75
2021/10/02 07:46:48;;;;;;;17.42;12.23;;;14.30;95.50;;;;;;5014342;28;20417;-76
2021/10/02 07:49:17;;;;;;;18.60;12.07;;;14.30;95.20;;;;;;5027884;28;20440;-75
2021/10/02 07:51:44;;;;;;;16.77;11.02;;;14.30;95.30;;;;;;5015633;28;20018;-76
2021/10/02 07:54:11;;;;;;;17.83;12.85;;;14.40;95.30;;;;;;5013335;28;20025;-76
2021/10/02 07:56:37;;;;;;;16.08;10.77;;;14.40;95.20;;;;;;4997606;28;20029;-75
2021/10/02 07:59:07;;;;;;;17.10;11.95;;;14.50;95.20;;;;;;5013961;28;20034;-76
2021/10/02 08:01:34;;;;;;;15.00;10.90;;;14.50;95.10;;;;;;4998332;28;20102;-75
2021/10/02 08:04:07;;;;;;;19.25;10.68;;;14.60;95.10;;;;;;5013639;28;20056;-75
2021/10/02 08:06:35;;;;;;;17.10;10.30;;;14.60;94.80;;;;;;5015055;28;20461;-76
2021/10/02 08:09:00;;;;;;;14.90;10.23;;;14.70;94.70;;;;;;5013551;28;20069;-76
2021/10/02 08:11:27;;;;;;;17.73;9.27;;;14.70;94.80;;;;;;5015328;28;20061;-76
2021/10/02 08:13:54;;;;;;;16.45;9.38;;;14.80;94.60;;;;;;4997460;28;20405;-75
2021/10/02 08:16:25;;;;;;;15.50;9.68;;;14.80;94.40;;;;;;5013939;28;20121;-76
2021/10/02 08:18:55;;;;;;;12.18;8.77;;;14.90;94.40;;;;;;5013606;28;20030;-76
2021/10/02 08:21:21;;;;;;;17.05;9.23;;;15.00;93.90;;;;;;5014793;28;20026;-75
2021/10/02 08:23:47;;;;;;;12.98;8.65;;;15.00;93.90;;;;;;5013034;28;20085;-75
2021/10/02 08:26:16;;;;;;;12.63;9.07;;;15.10;94.00;;;;;;4997064;28;20072;-76
2021/10/02 08:28:50;;;;;;;13.30;8.40;;;15.10;93.90;;;;;;5014645;28;20390;-74
2021/10/02 08:31:19;;;;;;;18.33;8.60;;;15.20;94.00;;;;;;4997749;28;20061;-76
2021/10/02 08:33:46;;;;;;;12.45;8.57;;;15.20;93.70;;;;;;5015129;28;20030;-76
2021/10/02 08:36:12;;;;;;;15.90;9.35;;;15.30;93.50;;;;;;5013578;28;20033;-76
2021/10/02 08:38:38;;;;;;;15.77;8.50;;;15.30;93.50;;;;;;5013769;28;20033;-75
2021/10/02 08:41:06;;;;;;;13.15;8.75;;;15.30;93.10;;;;;;5014706;28;20038;-75
2021/10/02 08:43:34;;;;;;;15.52;9.15;;;15.30;92.90;;;;;;4997319;28;20040;-79
2021/10/02 08:46:01;;;;;;;13.32;8.30;;;15.30;92.80;;;;;;5013509;28;20141;-76
2021/10/02 08:48:28;;;;;;;13.82;6.75;;;15.40;92.70;;;;;;4997061;28;20029;-76
2021/10/02 08:50:56;;;;;;;14.48;6.78;;;15.40;92.90;;;;;;5013111;28;20022;-75
2021/10/02 08:53:25;;;;;;;12.65;7.05;;;15.50;92.90;;;;;;5014695;28;20124;-75
2021/10/02 08:55:51;;;;;;;11.90;6.50;;;15.50;92.70;;;;;;5014608;28;20029;-76
2021/10/02 08:58:18;;;;;;;10.57;6.63;;;15.60;93.00;;;;;;5012165;28;20061;-75
2021/10/02 09:00:44;;;;;;;11.73;5.97;;;15.70;92.20;;;;;;5013069;28;20068;-75
2021/10/02 09:03:10;;;;;;;11.18;6.32;;;15.60;92.20;;;;;;4996322;28;20029;-75
2021/10/02 09:05:36;;;;;;;10.02;6.38;;;15.70;92.10;;;;;;5012027;28;20113;-75
2021/10/02 09:08:03;;;;;;;11.57;5.82;;;15.70;92.20;;;;;;5009757;28;20363;-75
2021/10/02 09:10:31;;;;;;;13.27;6.15;;;15.80;92.00;;;;;;5024193;28;20117;-74
2021/10/02 09:12:57;;;;;;;9.82;5.47;;;15.90;91.60;;;;;;5014169;28;20429;-76
2021/10/02 09:15:24;;;;;;;11.30;6.00;;;15.90;91.50;;;;;;5012838;28;20450;-75
2021/10/02 09:17:50;;;;;;;12.10;5.85;;;15.90;91.30;;;;;;5012660;28;20053;-76
2021/10/02 09:20:16;;;;;;;12.27;6.85;;;15.80;91.20;;;;;;5012933;28;20772;-76
2021/10/02 09:23:12;;;;;;;11.48;6.38;;;15.80;91.10;;;;;;5013763;28;20505;-75
2021/10/02 09:25:46;;;;;;;11.07;5.82;;;15.80;91.70;;;;;;5008410;28;20134;-76
2021/10/02 09:28:14;;;;;;;8.10;4.63;;;15.90;91.40;;;;;;5012517;28;20026;-74
2021/10/02 09:30:43;;;;;;;10.82;5.05;;;15.90;91.50;;;;;;5014067;28;20022;-76
2021/10/02 09:33:20;;;;;;;8.43;4.55;;;16.10;91.50;;;;;;5014165;28;20097;-75
2021/10/02 09:35:47;;;;;;;8.23;4.35;;;16.20;91.50;;;;;;5013438;28;20037;-75
2021/10/02 09:38:16;;;;;;;10.80;3.70;;;16.30;91.50;;;;;;5012359;28;20088;-75
2021/10/02 09:40:52;;;;;;;13.52;3.88;;;16.40;91.20;;;;;;5012219;28;20397;-76
2021/10/02 09:43:19;;;;;;;8.18;3.95;;;16.50;90.80;;;;;;5013778;28;20026;-76
2021/10/02 09:45:46;;;;;;;9.63;3.55;;;16.60;90.80;;;;;;5012210;28;20210;-75
2021/10/02 09:48:14;;;;;;;12.55;3.42;;;16.70;90.80;;;;;;5014365;28;20022;-76
2021/10/02 09:50:47;;;;;;;7.38;3.08;;;16.80;90.30;;;;;;5014735;28;20060;-75
2021/10/02 09:53:16;;;;;;;8.95;2.97;;;16.90;90.30;;;;;;5014851;28;20049;-76
2021/10/02 09:55:46;;;;;;;11.32;3.40;;;17.10;90.30;;;;;;5014451;28;20497;-74
2021/10/02 09:58:36;;;;;;;9.88;3.53;;;17.20;90.10;;;;;;5014151;28;20040;-76
2021/10/02 10:01:04;;;;;;;9.02;2.90;;;17.30;89.10;;;;;;5012182;28;20513;-75
2021/10/02 10:03:45;;;;;;;6.45;2.40;;;17.30;89.30;;;;;;5013247;28;20018;-76
2021/10/02 10:06:21;;;;;;;5.60;2.10;;;17.30;88.40;;;;;;5014359;28;20056;-74
2021/10/02 10:09:08;;;;;;;7.15;3.10;;;17.30;87.40;;;;;;5013959;28;20022;-74
2021/10/02 10:11:54;;;;;;;8.80;2.45;;;17.30;87.10;;;;;;5012839;28;20112;-75
2021/10/02 10:14:25;;;;;;;5.13;2.40;;;17.30;86.30;;;;;;5014128;28;20486;-75
2021/10/02 10:16:52;;;;;;;8.20;2.45;;;17.30;86.40;;;;;;5013921;28;20029;-75
2021/10/02 10:19:22;;;;;;;6.45;2.63;;;17.30;85.90;;;;;;5016755;28;20034;-75
2021/10/02 10:22:06;;;;;;;4.20;1.83;;;17.20;86.30;;;;;;5017612;28;20057;-75
2021/10/02 10:24:32;;;;;;;6.18;2.58;;;17.20;86.70;;;;;;5017285;28;20066;-75
2021/10/02 10:26:58;;;;;;;7.80;2.78;;;17.20;86.70;;;;;;5015731;28;20466;-75
2021/10/02 10:29:44;;;;;;;6.80;2.05;;;17.30;87.00;;;;;;5016256;28;20062;-75
2021/10/02 10:32:12;;;;;;;4.30;2.40;;;17.40;87.30;;;;;;5017046;28;20567;-76
2021/10/02 10:34:42;;;;;;;4.90;1.60;;;17.50;86.40;;;;;;5015951;28;20343;-73
2021/10/02 10:37:10;;;;;;;5.28;1.55;;;17.50;85.90;;;;;;5015902;28;20080;-75
2021/10/02 10:39:37;;;;;;;5.95;1.40;;;17.70;85.40;;;;;;4999602;28;20440;-75
2021/10/02 10:42:04;;;;;;;3.67;1.30;;;17.90;85.50;;;;;;5016750;28;20034;-74
2021/10/02 10:44:30;;;;;;;6.03;1.63;;;18.00;85.00;;;;;;5015974;28;20084;-75
2021/10/02 10:46:56;;;;;;;6.05;1.30;;;18.10;84.40;;;;;;5015503;28;20053;-74
2021/10/02 10:49:23;;;;;;;3.97;1.42;;;18.10;83.40;;;;;;5016955;28;20022;-74
2021/10/02 10:51:49;;;;;;;3.85;1.40;;;18.10;83.40;;;;;;5015632;28;20026;-75
2021/10/02 10:54:16;;;;;;;3.67;1.10;;;18.20;83.60;;;;;;5016868;28;20022;-74
2021/10/02 10:56:49;;;;;;;3.08;1.20;;;18.20;82.00;;;;;;5015265;28;20060;-76
2021/10/02 10:59:19;;;;;;;2.78;0.98;;;18.40;82.50;;;;;;5016608;28;20577;-76
2021/10/02 11:01:46;;;;;;;4.38;1.00;;;18.60;82.20;;;;;;4999730;28;20036;-77
2021/10/02 11:04:39;;;;;;;4.05;1.00;;;19.00;82.10;;;;;;5015467;28;20029;-76
2021/10/02 11:07:06;;;;;;;2.75;0.80;;;19.20;81.30;;;;;;5016774;28;20375;-79
2021/10/02 11:09:36;;;;;;;4.75;1.10;;;19.40;80.30;;;;;;5015345;28;20026;-78
2021/10/02 11:12:03;;;;;;;4.13;0.93;;;19.30;78.80;;;;;;5015189;28;20426;-79
2021/10/02 11:14:46;;;;;;;3.85;0.95;;;19.20;77.70;;;;;;5015248;28;20374;-75
2021/10/02 11:17:33;;;;;;;2.55;0.73;;;19.00;76.40;;;;;;5015127;28;20552;-75
2021/10/02 11:20:17;;;;;;;3.03;0.90;;;18.80;76.40;;;;;;5014970;28;20387;-76
2021/10/02 11:23:08;;;;;;;;;;;18.60;76.20;;;;;;5016489;28;20084;-76
2021/10/02 11:25:35;;;;;;;3.30;1.00;;;18.50;76.90;;;;;;5015372;28;20047;-76
2021/10/02 11:28:25;;;;;;;1.90;0.80;;;18.30;77.40;;;;;;5014898;28;20014;-80
2021/10/02 11:30:52;;;;;;;2.50;0.80;;;18.20;77.50;;;;;;5015493;28;20056;-81
2021/10/02 11:33:35;;;;;;;3.03;0.88;;;18.10;77.90;;;;;;5016257;28;20058;-81
2021/10/02 11:36:21;;;;;;;2.08;0.90;;;18.10;78.10;;;;;;5014654;28;20029;-79
2021/10/02 11:38:47;;;;;;;3.80;1.27;;;18.10;78.00;;;;;;5014547;28;20036;-76
2021/10/02 11:41:23;;;;;;;3.80;0.90;;;18.10;78.40;;;;;;4998266;28;20390;-78
2021/10/02 11:43:54;;;;;;;1.65;0.80;;;18.20;78.80;;;;;;4997996;28;20033;-79
2021/10/02 11:46:24;;;;;;;2.10;0.80;;;18.40;79.20;;;;;;5014500;28;20014;-80
2021/10/02 11:48:50;;;;;;;1.00;0.50;;;18.50;78.90;;;;;;4998842;28;20064;-78
2021/10/02 11:51:28;;;;;;;3.30;0.85;;;18.60;78.60;;;;;;5014424;28;20087;-75
2021/10/02 11:54:14;;;;;;;1.25;0.50;;;18.70;78.20;;;;;;5014194;28;20018;-82
2021/10/02 11:56:40;;;;;;;4.65;0.98;;;18.80;78.40;;;;;;5014317;28;20132;-79
2021/10/02 11:59:07;;;;;;;4.30;0.63;;;18.80;78.30;;;;;;4998103;28;20483;-83
2021/10/02 12:01:39;;;;;;;2.97;0.77;;;18.90;78.30;;;;;;5014318;28;20122;-81
2021/10/02 12:04:08;;;;;;;1.50;0.65;;;18.90;77.90;;;;;;5014149;28;20026;-81
2021/10/02 12:06:37;;;;;;;1.13;0.63;;;19.10;78.50;;;;;;5013902;28;20026;-82
2021/10/02 12:09:05;;;;;;;2.63;0.70;;;19.60;79.00;;;;;;4986471;28;20423;-80
2021/10/02 12:11:38;;;;;;;4.72;0.80;;;20.10;77.60;;;;;;4995676;28;20026;-82
2021/10/02 12:14:04;;;;;;;1.75;0.60;;;20.40;76.10;;;;;;5010052;28;20467;-83
2021/10/02 12:16:33;;;;;;;2.53;0.70;;;20.40;74.50;;;;;;4991262;28;20030;-87
2021/10/02 12:19:07;;;;;;;2.28;0.63;;;20.30;73.20;;;;;;5000403;28;20029;-85
2021/10/02 12:21:34;;;;;;;2.78;0.70;;;20.30;73.40;;;;;;5010045;28;20022;-86
2021/10/02 12:24:10;;;;;;;3.20;0.80;;;20.30;73.60;;;;;;5029844;28;20050;-78
2021/10/02 12:26:40;;;;;;;2.22;0.50;;;20.40;74.00;;;;;;5013339;28;20478;-76
2021/10/02 12:29:07;;;;;;;2.85;0.68;;;20.50;73.40;;;;;;5011374;28;20033;-81
2021/10/02 12:31:48;;;;;;;3.47;0.85;;;20.50;72.60;;;;;;5012810;28;20501;-84
2021/10/02 12:34:26;;;;;;;2.60;0.80;;;20.40;71.10;;;;;;5024766;28;20022;-81
2021/10/02 12:36:56;;;;;;;2.88;0.85;;;20.20;70.90;;;;;;5008737;28;20386;-85
2021/10/02 12:39:29;;;;;;;4.35;0.63;;;20.10;71.30;;;;;;5006509;28;20065;-81
2021/10/02 12:41:55;;;;;;;3.72;0.77;;;19.90;71.70;;;;;;5014511;28;20057;-77
2021/10/02 12:44:32;;;;;;;1.83;0.57;;;19.80;72.00;;;;;;5013729;28;20033;-77
2021/10/02 12:47:00;;;;;;;2.40;0.63;;;19.70;72.00;;;;;;5029475;28;20018;-81
2021/10/02 12:49:26;;;;;;;1.67;0.68;;;19.50;72.50;;;;;;5014492;28;20161;-88
2021/10/02 12:51:54;;;;;;;2.75;0.80;;;19.40;72.90;;;;;;5014746;28;20022;-84
2021/10/02 12:54:25;;;;;;;3.53;0.70;;;19.30;73.10;;;;;;5012914;28;20026;-74
2021/10/02 12:57:00;;;;;;;3.95;0.70;;;19.20;73.50;;;;;;5014466;28;20025;-80
2021/10/02 12:59:40;;;;;;;3.08;0.70;;;19.10;73.80;;;;;;5013003;28;20026;-77
2021/10/02 13:02:06;;;;;;;2.92;0.50;;;19.00;73.90;;;;;;5013184;28;20068;-76
2021/10/02 13:04:33;;;;;;;2.17;0.60;;;19.00;74.10;;;;;;5013309;28;20069;-76
2021/10/02 13:06:59;;;;;;;3.13;0.60;;;18.90;74.30;;;;;;5013014;28;20037;-77
2021/10/02 13:09:26;;;;;;;2.03;0.73;;;18.80;74.60;;;;;;4996583;28;20026;-77
2021/10/02 13:11:52;;;;;;;3.20;0.80;;;18.80;75.10;;;;;;5012756;28;20053;-78
2021/10/02 13:14:31;;;;;;;2.30;0.60;;;18.80;75.60;;;;;;5014243;28;20466;-76
2021/10/02 13:17:01;;;;;;;3.40;0.50;;;18.80;75.90;;;;;;4996516;28;20040;-77
2021/10/02 13:19:29;;;;;;;1.08;0.60;;;18.80;76.20;;;;;;5012778;28;20026;-77
2021/10/02 13:22:19;;;;;;;2.33;0.60;;;18.70;76.70;;;;;;4996894;28;20238;-77
2021/10/02 13:25:11;;;;;;;1.83;0.65;;;18.70;77.10;;;;;;5012981;28;20097;-77
2021/10/02 13:27:41;;;;;;;1.60;0.50;;;18.70;77.50;;;;;;5013029;28;20120;-77
2021/10/02 13:30:19;;;;;;;2.40;0.50;;;18.70;77.80;;;;;;5014134;28;20096;-77
2021/10/02 13:32:54;;;;;;;2.38;0.65;;;18.60;78.00;;;;;;5012873;28;20056;-78
2021/10/02 13:35:21;;;;;;;2.22;0.50;;;18.60;78.30;;;;;;5013936;28;20025;-78
2021/10/02 13:37:47;;;;;;;2.42;0.98;;;18.60;78.40;;;;;;5014233;28;20030;-76
2021/10/02 13:40:28;;;;;;;4.25;0.70;;;18.60;78.80;;;;;;5012865;28;20527;-76